Terminal Aerodrome Forecast
Issued by NWS

Home | Current Version | Previous Version | Text Only | Print | Product List | Glossary On
Versions: 1 2 3 4 5 6 7 8 9 10 11 12 13 14 15 16 17 18 19 20 21 22 23 24 25 26 27 28 29 30 31 32 33 34 35 36 37 38 39
000
FTUS42 KGSP 031000 AAA
TAFHKY
TAF AMD
KHKY 031000Z 0310/0406 04005KT P6SM OVC035
      TEMPO 0311/0312 BKN025 OVC035
     FM031200 04005KT P6SM OVC017
     FM031400 06004KT P6SM -RA OVC008
     FM031600 07003KT 3SM -RA OVC008
     FM032200 00000KT 3SM BR OVC008=

USA.gov is the U.S. government's official web portal to all federal, state and local government web resources and services.